Time;durP1;ratioP1;P1;durP2;ratioP2;P2;SDS_P1;SDS_P2;PMS_P1;PMS_P2;Temp;Humidity;BMP_temperature;BMP_pressure;BME280_temperature;BME280_humidity;BME280_pressure;Samples;Min_cycle;Max_cycle;Signal;HPM_P1;HPM_P2
2023/12/04 00:02:00;;;;;;;12.93;9.07;;;1.00;99.90;;;;;;5002977;28;20147;-75
2023/12/04 00:04:26;;;;;;;8.13;7.53;;;0.90;99.90;;;;;;5002788;28;20046;-75
2023/12/04 00:06:51;;;;;;;7.80;7.13;;;0.90;99.90;;;;;;5002051;28;20116;-74
2023/12/04 00:09:17;;;;;;;10.43;5.97;;;0.90;99.90;;;;;;5002468;28;20053;-76
2023/12/04 00:11:43;;;;;;;7.60;6.97;;;1.00;99.90;;;;;;5002646;28;20069;-75
2023/12/04 00:14:08;;;;;;;7.87;7.10;;;0.90;99.90;;;;;;5002042;28;20450;-75
2023/12/04 00:16:35;;;;;;;11.60;10.57;;;0.90;99.90;;;;;;5001519;28;20046;-75
2023/12/04 00:19:01;;;;;;;7.63;7.03;;;0.90;99.90;;;;;;5002314;28;20038;-76
2023/12/04 00:21:26;;;;;;;6.93;6.30;;;0.90;99.90;;;;;;4985652;28;20045;-75
2023/12/04 00:23:52;;;;;;;10.33;8.37;;;0.90;99.90;;;;;;5003168;28;20045;-76
2023/12/04 00:26:17;;;;;;;5.40;5.00;;;0.90;99.90;;;;;;5002170;28;20042;-75
2023/12/04 00:28:43;;;;;;;5.90;5.50;;;0.90;99.90;;;;;;4985807;28;20050;-75
2023/12/04 00:31:11;;;;;;;7.10;6.10;;;0.90;99.90;;;;;;4987656;28;20712;-76
2023/12/04 00:33:37;;;;;;;8.97;6.70;;;0.90;99.90;;;;;;4964613;28;20097;-75
2023/12/04 00:36:03;;;;;;;9.40;8.60;;;0.90;99.90;;;;;;4982237;28;20046;-75
2023/12/04 00:38:28;;;;;;;7.83;6.80;;;0.90;99.90;;;;;;4982683;28;20810;-75
2023/12/04 00:40:54;;;;;;;8.13;7.50;;;0.90;99.90;;;;;;4993125;28;20133;-74
2023/12/04 00:43:19;;;;;;;11.70;7.20;;;0.90;99.90;;;;;;5001631;28;20045;-75
2023/12/04 00:45:45;;;;;;;7.13;6.53;;;0.90;99.90;;;;;;4985786;28;20054;-75
2023/12/04 00:48:10;;;;;;;8.37;6.93;;;0.90;99.90;;;;;;5000312;28;20406;-74
2023/12/04 00:50:36;;;;;;;11.07;7.60;;;0.90;99.90;;;;;;5001319;28;20060;-76
2023/12/04 00:53:02;;;;;;;9.53;7.83;;;0.90;99.90;;;;;;4985438;28;20601;-75
2023/12/04 00:55:27;;;;;;;5.63;5.27;;;0.90;99.90;;;;;;5002604;28;20284;-74
2023/12/04 00:57:53;;;;;;;10.27;6.67;;;0.90;99.90;;;;;;4988126;28;20125;-76
2023/12/04 01:00:18;;;;;;;6.70;6.20;;;0.90;99.90;;;;;;4973268;28;20077;-75
2023/12/04 01:02:44;;;;;;;6.87;6.27;;;0.90;99.90;;;;;;5001706;28;20038;-74
2023/12/04 01:05:09;;;;;;;7.27;6.70;;;0.90;99.90;;;;;;5001948;28;20045;-75
2023/12/04 01:07:35;;;;;;;8.03;7.30;;;0.90;99.90;;;;;;4999442;28;20054;-75
2023/12/04 01:10:01;;;;;;;9.17;8.33;;;0.90;99.90;;;;;;4982447;28;20038;-74
2023/12/04 01:12:26;;;;;;;6.03;5.47;;;0.90;99.90;;;;;;4981552;28;20473;-75
2023/12/04 01:14:52;;;;;;;7.60;7.00;;;0.90;99.90;;;;;;4983005;28;20096;-75
2023/12/04 01:17:18;;;;;;;6.63;6.00;;;0.90;99.90;;;;;;4981240;28;20109;-75
2023/12/04 01:19:43;;;;;;;6.67;6.17;;;0.90;99.90;;;;;;4981692;28;20049;-75
2023/12/04 01:22:09;;;;;;;9.67;7.77;;;0.90;99.90;;;;;;4982885;28;20453;-75
2023/12/04 01:24:34;;;;;;;8.93;7.97;;;0.90;99.90;;;;;;4982483;28;20093;-75
2023/12/04 01:27:00;;;;;;;10.33;9.20;;;0.90;99.90;;;;;;4981265;28;20085;-76
2023/12/04 01:29:26;;;;;;;6.60;6.07;;;1.00;99.90;;;;;;4982605;28;20042;-75
2023/12/04 01:31:51;;;;;;;7.10;6.43;;;1.00;99.90;;;;;;4981403;28;20560;-76
2023/12/04 01:34:17;;;;;;;7.93;7.23;;;1.00;99.90;;;;;;4982120;28;20042;-76
2023/12/04 01:36:42;;;;;;;8.37;7.17;;;1.00;99.90;;;;;;4982783;28;20070;-75
2023/12/04 01:39:08;;;;;;;6.60;6.00;;;1.00;99.90;;;;;;4981191;28;20042;-75
2023/12/04 01:41:34;;;;;;;9.13;8.20;;;1.00;99.90;;;;;;4981352;28;20044;-76
2023/12/04 01:43:59;;;;;;;6.93;6.23;;;1.00;99.90;;;;;;4981119;28;20038;-74
2023/12/04 01:46:25;;;;;;;8.47;7.53;;;1.00;99.90;;;;;;4980971;28;20039;-74
2023/12/04 01:48:52;;;;;;;10.77;6.47;;;1.00;99.90;;;;;;4981339;28;20047;-76
2023/12/04 01:51:19;;;;;;;6.10;5.70;;;1.00;99.90;;;;;;4982477;28;20474;-74
2023/12/04 01:53:46;;;;;;;8.10;7.17;;;1.00;99.90;;;;;;4981239;28;20457;-75
2023/12/04 01:56:13;;;;;;;10.37;9.40;;;1.00;99.90;;;;;;4981193;28;20073;-75
2023/12/04 01:58:39;;;;;;;9.17;8.37;;;1.00;99.90;;;;;;4992690;28;20625;-75
2023/12/04 02:01:05;;;;;;;7.50;6.77;;;1.00;99.90;;;;;;5001559;28;20045;-75
2023/12/04 02:03:31;;;;;;;9.20;7.87;;;1.00;99.90;;;;;;4983660;28;20499;-75
2023/12/04 02:06:00;;;;;;;10.37;8.47;;;1.00;99.90;;;;;;4999313;28;20042;-75
2023/12/04 02:08:26;;;;;;;6.63;6.03;;;1.00;99.90;;;;;;4975954;28;20038;-75
2023/12/04 02:10:52;;;;;;;8.10;7.40;;;1.00;99.90;;;;;;4981860;28;20073;-74
2023/12/04 02:13:18;;;;;;;9.87;9.07;;;1.00;99.90;;;;;;5074915;23;20403;-75
2023/12/04 02:15:46;;;;;;;7.37;6.77;;;1.00;99.90;;;;;;5016265;28;20046;-75
2023/12/04 02:18:12;;;;;;;11.53;9.37;;;1.00;99.90;;;;;;4998762;28;20120;-75
2023/12/04 02:20:38;;;;;;;8.30;7.50;;;1.00;99.90;;;;;;4999913;28;20124;-76
2023/12/04 02:23:03;;;;;;;7.93;7.27;;;1.00;99.90;;;;;;4999798;28;20192;-75
2023/12/04 02:25:30;;;;;;;14.23;9.03;;;1.00;99.90;;;;;;5000229;28;20065;-75
2023/12/04 02:27:59;;;;;;;8.43;7.73;;;1.00;99.90;;;;;;4999905;28;20077;-75
2023/12/04 02:30:28;;;;;;;10.43;9.70;;;1.00;99.90;;;;;;5000400;28;20448;-75
2023/12/04 02:32:54;;;;;;;8.73;7.97;;;1.00;99.90;;;;;;4999692;28;20045;-75
2023/12/04 02:35:22;;;;;;;11.60;9.50;;;1.00;99.90;;;;;;5001389;28;20077;-75
2023/12/04 02:37:49;;;;;;;11.20;8.17;;;1.00;99.90;;;;;;5001990;28;20050;-75
2023/12/04 02:40:15;;;;;;;11.23;10.13;;;1.00;99.90;;;;;;5001736;28;20091;-74
2023/12/04 02:42:41;;;;;;;8.43;7.60;;;1.00;99.90;;;;;;5005577;28;20048;-74
2023/12/04 02:45:07;;;;;;;16.67;9.70;;;1.00;99.90;;;;;;5004764;28;20037;-75
2023/12/04 02:47:32;;;;;;;10.03;9.10;;;1.00;99.90;;;;;;5006393;28;20076;-75
2023/12/04 02:49:58;;;;;;;15.20;9.37;;;1.00;99.90;;;;;;5022710;28;20539;-75
2023/12/04 02:52:24;;;;;;;9.87;8.63;;;1.00;99.90;;;;;;5020629;28;20087;-75
2023/12/04 02:54:49;;;;;;;8.53;7.93;;;1.00;99.90;;;;;;4987894;28;20108;-76
2023/12/04 02:57:15;;;;;;;12.37;11.37;;;1.00;99.90;;;;;;5004083;28;20045;-75
2023/12/04 02:59:40;;;;;;;22.37;10.67;;;1.00;99.90;;;;;;4985504;28;20089;-75
2023/12/04 03:02:06;;;;;;;12.93;11.70;;;1.00;99.90;;;;;;4984191;28;20567;-76
2023/12/04 03:04:33;;;;;;;15.03;9.43;;;1.00;99.90;;;;;;4983208;28;20031;-74
2023/12/04 03:06:58;;;;;;;11.20;10.13;;;1.00;99.90;;;;;;4998642;28;20082;-76
2023/12/04 03:09:24;;;;;;;12.63;9.53;;;1.00;99.90;;;;;;5002423;28;20128;-76
2023/12/04 03:11:49;;;;;;;10.07;8.80;;;1.10;99.90;;;;;;5003243;28;20053;-75
2023/12/04 03:14:15;;;;;;;11.60;8.87;;;1.00;99.90;;;;;;5004315;28;20471;-76
2023/12/04 03:16:40;;;;;;;10.27;9.57;;;1.00;99.90;;;;;;5005058;28;20046;-76
2023/12/04 03:19:06;;;;;;;10.43;8.10;;;1.00;99.90;;;;;;5002009;28;20046;-75
2023/12/04 03:21:32;;;;;;;9.70;9.00;;;1.10;99.90;;;;;;5004386;28;20129;-76
2023/12/04 03:23:57;;;;;;;9.50;7.90;;;1.10;99.90;;;;;;5002983;28;20045;-76
2023/12/04 03:26:23;;;;;;;12.93;11.73;;;1.10;99.90;;;;;;5002756;28;20042;-75
2023/12/04 03:28:49;;;;;;;10.33;9.43;;;1.00;99.90;;;;;;5004881;28;20056;-76
2023/12/04 03:31:14;;;;;;;9.87;9.07;;;1.00;99.90;;;;;;5003160;28;20069;-76
2023/12/04 03:33:40;;;;;;;11.10;10.20;;;1.00;99.90;;;;;;5002260;28;20147;-76
2023/12/04 03:36:06;;;;;;;9.90;8.67;;;1.10;99.90;;;;;;5002184;28;20564;-77
2023/12/04 03:38:31;;;;;;;11.70;8.93;;;1.00;99.90;;;;;;5004549;28;20439;-75
2023/12/04 03:40:57;;;;;;;12.80;9.07;;;1.10;99.90;;;;;;5002567;28;20045;-75
2023/12/04 03:43:23;;;;;;;13.67;5.90;;;1.10;99.90;;;;;;5004078;28;20038;-76
2023/12/04 03:45:48;;;;;;;11.10;8.90;;;1.10;99.90;;;;;;5003829;28;20096;-76
2023/12/04 03:48:14;;;;;;;13.60;11.47;;;1.10;99.90;;;;;;5001002;28;20045;-75
2023/12/04 03:50:39;;;;;;;9.50;8.57;;;1.00;99.90;;;;;;5004419;28;20064;-76
2023/12/04 03:53:05;;;;;;;10.40;9.17;;;1.10;99.90;;;;;;5003320;28;20160;-76
2023/12/04 03:55:30;;;;;;;12.90;9.00;;;1.10;99.90;;;;;;5003664;28;20037;-76
2023/12/04 03:57:57;;;;;;;9.50;7.63;;;1.10;99.90;;;;;;5003487;28;20050;-76
2023/12/04 04:00:23;;;;;;;7.60;6.73;;;1.10;99.90;;;;;;5002637;28;20065;-75
2023/12/04 04:02:49;;;;;;;10.13;8.63;;;1.10;99.90;;;;;;5002188;28;20487;-76
2023/12/04 04:05:14;;;;;;;9.77;6.97;;;1.00;99.90;;;;;;5002233;28;20077;-74
2023/12/04 04:07:41;;;;;;;16.77;9.50;;;1.10;99.90;;;;;;5001669;28;20049;-74
2023/12/04 04:10:07;;;;;;;14.90;10.73;;;1.10;99.90;;;;;;4982815;28;20054;-75
2023/12/04 04:12:33;;;;;;;16.97;9.63;;;1.10;99.90;;;;;;4982650;28;20141;-75
2023/12/04 04:14:59;;;;;;;8.83;8.23;;;1.10;99.90;;;;;;4990666;28;20144;-76
2023/12/04 04:17:27;;;;;;;6.37;5.63;;;1.10;99.90;;;;;;4984921;28;20092;-76
2023/12/04 04:19:53;;;;;;;12.00;9.37;;;1.10;99.90;;;;;;5002433;28;20073;-75
2023/12/04 04:22:22;;;;;;;9.00;8.13;;;1.10;99.90;;;;;;5001969;28;20057;-75
2023/12/04 04:24:49;;;;;;;10.47;9.43;;;1.10;99.90;;;;;;5002495;28;20053;-76
2023/12/04 04:27:14;;;;;;;9.33;8.60;;;1.10;99.90;;;;;;5001807;28;20049;-75
2023/12/04 04:29:40;;;;;;;11.40;10.23;;;1.10;99.90;;;;;;5003084;28;20045;-75
2023/12/04 04:32:06;;;;;;;15.13;9.10;;;1.10;99.90;;;;;;5001074;28;20072;-76
2023/12/04 04:34:32;;;;;;;13.77;8.47;;;1.10;99.90;;;;;;5003068;28;20042;-76
2023/12/04 04:36:57;;;;;;;10.73;9.80;;;1.10;99.90;;;;;;5002824;28;20492;-75
2023/12/04 04:39:23;;;;;;;7.97;7.37;;;1.10;99.90;;;;;;5002920;28;20088;-76
2023/12/04 04:41:49;;;;;;;10.13;9.43;;;1.10;99.90;;;;;;5002342;28;20528;-76
2023/12/04 04:44:14;;;;;;;9.47;8.50;;;1.10;99.90;;;;;;5001837;28;20052;-76
2023/12/04 04:46:40;;;;;;;8.53;7.87;;;1.10;99.90;;;;;;5002144;28;20050;-76
2023/12/04 04:49:06;;;;;;;8.07;7.40;;;1.10;99.90;;;;;;5000280;28;20050;-75
2023/12/04 04:51:33;;;;;;;8.00;6.40;;;1.10;99.90;;;;;;5002614;28;20046;-75
2023/12/04 04:53:58;;;;;;;8.07;7.57;;;1.10;99.90;;;;;;5002761;28;20054;-74
2023/12/04 04:56:24;;;;;;;7.33;6.63;;;1.10;99.90;;;;;;5002294;28;20049;-75
2023/12/04 04:58:50;;;;;;;15.40;7.60;;;1.10;99.90;;;;;;5001036;28;20049;-75
2023/12/04 05:01:15;;;;;;;7.10;6.53;;;1.10;99.90;;;;;;5002257;28;20041;-74
2023/12/04 05:03:41;;;;;;;9.37;8.60;;;1.10;99.90;;;;;;4999566;28;20108;-75
2023/12/04 05:06:07;;;;;;;7.33;6.60;;;1.10;99.90;;;;;;5002158;28;20052;-76
2023/12/04 05:08:32;;;;;;;7.93;7.23;;;1.10;99.90;;;;;;5001128;28;20093;-75
2023/12/04 05:10:58;;;;;;;7.60;6.97;;;1.10;99.90;;;;;;5001205;28;20531;-74
2023/12/04 05:13:23;;;;;;;7.10;6.50;;;1.10;99.90;;;;;;5001549;28;20419;-75
2023/12/04 05:15:49;;;;;;;8.67;7.87;;;1.10;99.90;;;;;;5002814;28;20377;-75
2023/12/04 05:18:15;;;;;;;10.97;8.03;;;1.10;99.90;;;;;;5002146;28;20183;-75
2023/12/04 05:20:40;;;;;;;5.67;5.27;;;1.10;99.90;;;;;;5001175;28;20038;-75
2023/12/04 05:23:06;;;;;;;11.07;10.03;;;1.10;99.90;;;;;;5002263;28;20364;-75
2023/12/04 05:25:31;;;;;;;11.13;7.70;;;1.10;99.90;;;;;;5001812;28;20590;-74
2023/12/04 05:27:57;;;;;;;6.70;6.27;;;1.10;99.90;;;;;;5000733;28;20046;-75
2023/12/04 05:30:23;;;;;;;8.97;8.30;;;1.20;99.90;;;;;;5002004;28;20038;-74
2023/12/04 05:32:48;;;;;;;7.43;5.90;;;1.20;99.90;;;;;;5000034;28;20487;-75
2023/12/04 05:35:15;;;;;;;6.43;5.97;;;1.20;99.90;;;;;;5001793;28;20053;-76
2023/12/04 05:37:41;;;;;;;6.70;6.27;;;1.10;99.90;;;;;;5002350;28;20570;-76
2023/12/04 05:40:07;;;;;;;6.23;5.73;;;1.20;99.90;;;;;;5001283;28;20030;-75
2023/12/04 05:42:33;;;;;;;8.87;8.10;;;1.10;99.90;;;;;;4984232;28;20129;-76
2023/12/04 05:45:00;;;;;;;9.33;8.27;;;1.20;99.90;;;;;;5001818;28;20253;-75
2023/12/04 05:47:26;;;;;;;7.30;6.60;;;1.10;99.90;;;;;;4999667;28;20457;-75
2023/12/04 05:49:51;;;;;;;8.23;7.13;;;1.20;99.90;;;;;;5001705;28;20128;-76
2023/12/04 05:52:17;;;;;;;5.77;5.17;;;1.20;99.90;;;;;;5001631;28;20045;-75
2023/12/04 05:54:42;;;;;;;11.57;10.20;;;1.20;99.90;;;;;;5000056;28;20061;-75
2023/12/04 05:57:08;;;;;;;7.10;6.40;;;1.20;99.90;;;;;;5001460;28;20175;-74
2023/12/04 05:59:34;;;;;;;7.90;7.47;;;1.20;99.90;;;;;;5001425;28;20097;-74
2023/12/04 06:01:59;;;;;;;7.53;6.70;;;1.20;99.90;;;;;;4999191;28;20729;-75
2023/12/04 06:04:25;;;;;;;7.20;6.53;;;1.20;99.90;;;;;;5000311;28;20042;-74
2023/12/04 06:06:50;;;;;;;9.20;6.53;;;1.20;99.90;;;;;;5001864;28;20057;-76
2023/12/04 06:09:16;;;;;;;7.23;6.63;;;1.20;99.90;;;;;;4997469;28;20046;-75
2023/12/04 06:11:42;;;;;;;11.97;10.90;;;1.20;99.90;;;;;;4991682;28;20416;-74
2023/12/04 06:14:08;;;;;;;7.47;6.77;;;1.20;99.90;;;;;;4990284;28;20037;-76
2023/12/04 06:16:33;;;;;;;8.60;5.70;;;1.20;99.90;;;;;;4993058;28;20056;-75
2023/12/04 06:18:59;;;;;;;7.80;7.20;;;1.20;99.90;;;;;;4986392;28;20046;-76
2023/12/04 06:21:24;;;;;;;6.67;6.07;;;1.20;99.90;;;;;;5000783;28;20583;-75
2023/12/04 06:23:50;;;;;;;8.23;7.63;;;1.20;99.90;;;;;;5000854;28;20057;-75
2023/12/04 06:26:17;;;;;;;12.47;7.33;;;1.20;99.90;;;;;;5000842;28;20034;-76
2023/12/04 06:28:43;;;;;;;6.47;5.87;;;1.20;99.90;;;;;;4983812;28;20038;-74
2023/12/04 06:31:10;;;;;;;9.73;8.93;;;1.20;99.90;;;;;;5001145;28;20958;-75
2023/12/04 06:33:36;;;;;;;9.77;8.93;;;1.20;99.90;;;;;;4999862;28;20510;-74
2023/12/04 06:36:02;;;;;;;4.80;4.47;;;1.20;99.90;;;;;;5001088;28;20046;-75
2023/12/04 06:38:32;;;;;;;8.60;7.80;;;1.20;99.90;;;;;;5001116;28;20074;-74
2023/12/04 06:40:58;;;;;;;15.33;7.60;;;1.20;99.90;;;;;;4999217;28;20046;-76
2023/12/04 06:43:24;;;;;;;8.13;7.33;;;1.20;99.90;;;;;;5000367;28;20192;-75
2023/12/04 06:45:49;;;;;;;9.67;7.53;;;1.20;99.90;;;;;;5000238;28;20133;-75
2023/12/04 06:48:15;;;;;;;10.17;5.87;;;1.20;99.90;;;;;;4994203;28;20037;-75
2023/12/04 06:50:41;;;;;;;5.07;4.43;;;1.20;99.90;;;;;;4999530;28;20081;-75
2023/12/04 06:53:06;;;;;;;6.70;6.10;;;1.20;99.90;;;;;;4994880;28;20480;-76
2023/12/04 06:55:32;;;;;;;8.17;4.37;;;1.20;99.90;;;;;;4994076;28;20338;-76
2023/12/04 06:57:58;;;;;;;5.30;4.93;;;1.20;99.90;;;;;;4999557;28;20054;-75
2023/12/04 07:00:23;;;;;;;8.57;7.70;;;1.20;99.90;;;;;;4996954;28;20048;-74
2023/12/04 07:02:50;;;;;;;6.57;6.07;;;1.20;99.90;;;;;;5000140;28;20447;-75
2023/12/04 07:05:16;;;;;;;7.97;7.30;;;1.20;99.90;;;;;;4991241;28;20054;-75
2023/12/04 07:07:41;;;;;;;6.30;4.97;;;1.20;99.90;;;;;;4998955;28;20052;-76
2023/12/04 07:10:07;;;;;;;8.23;5.20;;;1.20;99.90;;;;;;4978012;28;20840;-76
2023/12/04 07:12:33;;;;;;;6.27;5.87;;;1.20;99.90;;;;;;4998333;28;20057;-74
2023/12/04 07:14:59;;;;;;;16.90;6.83;;;1.20;99.90;;;;;;5012977;28;20061;-75
2023/12/04 07:17:25;;;;;;;11.37;8.63;;;1.20;99.90;;;;;;4995568;28;20045;-78
2023/12/04 07:19:50;;;;;;;15.53;7.20;;;1.20;99.90;;;;;;4992032;28;20042;-77
2023/12/04 07:22:16;;;;;;;4.97;4.60;;;1.20;99.90;;;;;;4981377;28;20034;-79
2023/12/04 07:24:41;;;;;;;6.80;6.20;;;1.20;99.90;;;;;;4980958;28;20054;-75
2023/12/04 07:27:09;;;;;;;3.97;3.77;;;1.20;99.90;;;;;;5003292;28;20065;-75
2023/12/04 07:29:34;;;;;;;9.20;7.07;;;1.20;99.90;;;;;;5001441;28;20037;-75
2023/12/04 07:32:00;;;;;;;8.67;7.90;;;1.20;99.90;;;;;;4993948;28;20038;-75
2023/12/04 07:34:26;;;;;;;6.23;5.40;;;1.20;99.90;;;;;;5003810;28;20117;-75
2023/12/04 07:36:51;;;;;;;5.43;5.10;;;1.20;99.90;;;;;;4988232;28;20141;-76
2023/12/04 07:39:17;;;;;;;9.27;5.13;;;1.20;99.90;;;;;;5001383;28;20132;-75
2023/12/04 07:41:43;;;;;;;8.00;7.43;;;1.20;99.90;;;;;;5000501;28;20045;-75
2023/12/04 07:44:08;;;;;;;5.83;5.43;;;1.20;99.90;;;;;;4999739;28;20038;-74
2023/12/04 07:46:34;;;;;;;6.47;5.93;;;1.20;99.90;;;;;;5001089;28;20065;-74
2023/12/04 07:48:59;;;;;;;6.80;6.17;;;1.20;99.90;;;;;;4997102;28;20073;-75
2023/12/04 07:51:25;;;;;;;5.63;5.10;;;1.20;99.90;;;;;;5001206;28;20129;-74
2023/12/04 07:53:50;;;;;;;7.77;6.20;;;1.20;99.90;;;;;;5001495;28;20042;-75
2023/12/04 07:56:16;;;;;;;4.83;4.53;;;1.20;99.90;;;;;;5001609;28;20049;-74
2023/12/04 07:58:42;;;;;;;5.97;5.60;;;1.20;99.90;;;;;;4984900;28;20038;-75
2023/12/04 08:01:08;;;;;;;6.90;5.93;;;1.20;99.90;;;;;;4983887;28;20334;-75
2023/12/04 08:03:33;;;;;;;7.47;6.83;;;1.20;99.90;;;;;;5000249;28;20388;-75
2023/12/04 08:05:59;;;;;;;6.80;5.53;;;1.20;99.90;;;;;;5000088;28;20050;-75
2023/12/04 08:08:25;;;;;;;6.33;4.63;;;1.20;99.90;;;;;;4993419;28;20129;-75
2023/12/04 08:10:51;;;;;;;4.83;4.13;;;1.20;99.90;;;;;;4981548;28;20048;-75
2023/12/04 08:13:16;;;;;;;4.90;4.40;;;1.20;99.90;;;;;;4995451;28;20048;-74
2023/12/04 08:15:43;;;;;;;5.27;4.70;;;1.20;99.90;;;;;;5002772;28;20105;-75
2023/12/04 08:18:09;;;;;;;6.30;5.87;;;1.20;99.90;;;;;;4998555;28;20042;-74
2023/12/04 08:20:34;;;;;;;5.77;5.23;;;1.20;99.90;;;;;;4984214;28;20030;-75
2023/12/04 08:23:00;;;;;;;6.07;5.50;;;1.20;99.90;;;;;;5001221;28;20330;-75
2023/12/04 08:25:26;;;;;;;6.30;5.70;;;1.20;99.90;;;;;;5001656;28;20548;-75
2023/12/04 08:27:51;;;;;;;5.33;4.80;;;1.20;99.90;;;;;;4983742;28;20136;-75
2023/12/04 08:30:17;;;;;;;4.57;3.97;;;1.20;99.90;;;;;;5001354;28;20050;-75
2023/12/04 08:32:43;;;;;;;6.13;5.53;;;1.20;99.90;;;;;;5000655;28;20129;-75
2023/12/04 08:35:09;;;;;;;5.03;4.63;;;1.30;99.90;;;;;;4996491;28;20096;-74
2023/12/04 08:37:35;;;;;;;3.87;3.57;;;1.20;99.90;;;;;;4996624;28;20053;-74
2023/12/04 08:40:01;;;;;;;14.17;5.30;;;1.20;99.90;;;;;;4988223;28;20073;-74
2023/12/04 08:42:26;;;;;;;7.67;4.37;;;1.30;99.90;;;;;;4997365;28;20048;-75
2023/12/04 08:44:52;;;;;;;4.40;4.00;;;1.30;99.90;;;;;;5006262;28;20038;-75
2023/12/04 08:47:17;;;;;;;5.60;3.70;;;1.30;99.90;;;;;;5000567;28;20357;-74
2023/12/04 08:49:43;;;;;;;4.67;4.27;;;1.30;99.90;;;;;;4996160;28;20503;-76
2023/12/04 08:52:09;;;;;;;14.27;3.60;;;1.30;99.90;;;;;;4982994;28;20661;-76
2023/12/04 08:54:38;;;;;;;6.93;4.67;;;1.30;99.90;;;;;;4999458;28;20175;-75
2023/12/04 08:57:04;;;;;;;2.80;2.67;;;1.30;99.90;;;;;;4995068;28;20505;-75
2023/12/04 08:59:30;;;;;;;4.33;4.03;;;1.40;99.90;;;;;;4980267;28;20124;-75
2023/12/04 09:01:55;;;;;;;3.50;3.03;;;1.40;99.90;;;;;;4997154;28;20060;-75
2023/12/04 09:04:21;;;;;;;6.03;5.63;;;1.40;99.90;;;;;;4992085;28;20046;-77
2023/12/04 09:06:47;;;;;;;6.30;3.83;;;1.40;99.90;;;;;;4987858;28;20046;-77
2023/12/04 09:09:15;;;;;;;4.33;3.93;;;1.40;99.90;;;;;;4995149;28;20045;-77
2023/12/04 09:11:44;;;;;;;4.60;4.30;;;1.50;99.90;;;;;;5009245;28;20049;-75
2023/12/04 09:14:10;;;;;;;8.80;3.40;;;1.50;99.90;;;;;;4981115;28;20641;-75
2023/12/04 09:16:35;;;;;;;3.63;3.40;;;1.50;99.90;;;;;;5005915;28;20053;-78
2023/12/04 09:19:01;;;;;;;3.60;2.93;;;1.50;99.90;;;;;;4992194;28;20090;-77
2023/12/04 09:21:26;;;;;;;2.57;2.20;;;1.50;99.90;;;;;;4995824;28;20049;-77
2023/12/04 09:23:52;;;;;;;3.60;3.27;;;1.50;99.90;;;;;;4999018;28;20558;-76
2023/12/04 09:26:18;;;;;;;6.23;5.07;;;1.50;99.90;;;;;;5011889;28;20276;-77
2023/12/04 09:28:44;;;;;;;4.97;4.60;;;1.50;99.90;;;;;;4989493;28;20042;-76
2023/12/04 09:31:09;;;;;;;3.60;3.30;;;1.40;99.90;;;;;;4996350;28;20401;-75
2023/12/04 09:33:36;;;;;;;3.37;3.17;;;1.40;99.90;;;;;;4993446;28;20058;-74
2023/12/04 09:36:02;;;;;;;2.67;2.47;;;1.40;99.90;;;;;;4994540;28;20054;-75
2023/12/04 09:38:28;;;;;;;3.33;3.17;;;1.40;99.90;;;;;;4998753;28;20772;-75
2023/12/04 09:40:58;;;;;;;4.20;3.90;;;1.40;99.90;;;;;;4998464;28;20038;-75
2023/12/04 09:43:25;;;;;;;4.20;3.90;;;1.40;99.90;;;;;;4982489;28;20495;-75
2023/12/04 09:45:51;;;;;;;3.80;3.47;;;1.40;99.90;;;;;;4980359;28;20038;-75
2023/12/04 09:48:17;;;;;;;4.00;3.70;;;1.40;99.90;;;;;;4997895;28;20065;-75
2023/12/04 09:50:43;;;;;;;2.40;2.27;;;1.40;99.90;;;;;;4999163;28;20042;-75
2023/12/04 09:53:11;;;;;;;3.37;2.80;;;1.40;99.90;;;;;;4983418;28;20045;-75
2023/12/04 09:55:37;;;;;;;4.30;3.90;;;1.40;99.90;;;;;;4998652;28;20046;-75
2023/12/04 09:58:03;;;;;;;5.30;4.77;;;1.40;99.90;;;;;;4982810;28;20046;-75
2023/12/04 10:00:32;;;;;;;2.83;2.63;;;1.40;99.90;;;;;;4999471;28;20388;-75
2023/12/04 10:02:59;;;;;;;5.13;4.20;;;1.40;99.90;;;;;;4997990;28;20404;-75
2023/12/04 10:05:25;;;;;;;3.90;3.60;;;1.40;99.90;;;;;;4999680;28;20084;-75
2023/12/04 10:07:50;;;;;;;3.37;3.20;;;1.40;99.90;;;;;;4983138;28;20037;-75
2023/12/04 10:10:16;;;;;;;3.50;2.83;;;1.40;99.90;;;;;;4999942;28;20072;-75
2023/12/04 10:12:43;;;;;;;4.23;3.90;;;1.40;99.90;;;;;;4998260;28;20050;-75
2023/12/04 10:15:10;;;;;;;6.20;3.50;;;1.50;99.90;;;;;;4998743;28;20400;-75
2023/12/04 10:17:41;;;;;;;4.67;3.77;;;1.40;99.90;;;;;;4968012;28;20169;-75
2023/12/04 10:20:12;;;;;;;4.30;3.90;;;1.50;99.90;;;;;;4988943;28;20034;-78
2023/12/04 10:22:52;;;;;;;2.87;2.67;;;1.50;99.90;;;;;;4982771;28;20057;-76
2023/12/04 10:25:18;;;;;;;3.17;2.93;;;1.50;99.90;;;;;;4983338;28;20333;-76
2023/12/04 10:27:45;;;;;;;3.97;3.67;;;1.60;99.90;;;;;;4983280;28;20515;-75
2023/12/04 10:30:26;;;;;;;3.73;3.13;;;1.50;99.90;;;;;;4998741;28;20046;-75
2023/12/04 10:33:00;;;;;;;2.80;2.60;;;1.60;99.90;;;;;;4983749;28;20301;-76
2023/12/04 10:35:32;;;;;;;3.97;3.53;;;1.60;99.90;;;;;;4964522;28;20069;-75
2023/12/04 10:37:59;;;;;;;4.38;2.70;;;1.60;99.90;;;;;;4996292;28;20037;-76
2023/12/04 10:40:31;;;;;;;3.23;2.70;;;1.70;99.90;;;;;;5002072;28;20326;-75
2023/12/04 10:43:09;;;;;;;3.67;3.47;;;1.70;99.90;;;;;;4986300;28;20042;-76
2023/12/04 10:45:36;;;;;;;3.63;3.23;;;1.70;99.90;;;;;;4993348;28;20046;-77
2023/12/04 10:48:04;;;;;;;3.10;2.90;;;1.70;99.90;;;;;;4996627;28;20038;-76
2023/12/04 10:50:35;;;;;;;2.63;2.10;;;1.70;99.90;;;;;;4997940;28;20053;-75
2023/12/04 10:53:07;;;;;;;3.63;2.20;;;1.70;99.90;;;;;;4994512;28;20070;-76
2023/12/04 10:55:33;;;;;;;;;;;1.70;99.90;;;;;;4975657;28;20030;-76
2023/12/04 10:58:14;;;;;;;3.13;2.83;;;1.70;99.90;;;;;;4995318;28;20127;-76
2023/12/04 11:00:50;;;;;;;2.60;2.50;;;1.70;99.90;;;;;;4974442;28;20121;-76
2023/12/04 11:03:31;;;;;;;4.23;3.23;;;1.70;99.90;;;;;;5002187;28;20060;-76
2023/12/04 11:06:00;;;;;;;3.67;3.13;;;1.70;99.90;;;;;;4984978;28;20053;-75
2023/12/04 11:08:29;;;;;;;4.50;3.33;;;1.70;99.90;;;;;;4982999;28;20064;-76
2023/12/04 11:10:59;;;;;;;3.30;2.93;;;1.80;99.90;;;;;;4997086;28;20082;-76
2023/12/04 11:13:29;;;;;;;4.53;3.17;;;1.80;99.90;;;;;;4996739;28;20054;-74
2023/12/04 11:16:01;;;;;;;4.70;2.53;;;1.80;99.90;;;;;;4997358;28;20034;-76
2023/12/04 11:18:31;;;;;;;6.18;2.03;;;1.80;99.90;;;;;;4999573;28;20484;-75
2023/12/04 11:21:09;;;;;;;3.67;3.33;;;1.80;99.90;;;;;;4982284;28;20045;-75
2023/12/04 11:23:35;;;;;;;2.57;1.57;;;1.80;99.90;;;;;;4979472;28;20104;-76
2023/12/04 11:26:03;;;;;;;2.57;2.47;;;1.80;99.90;;;;;;4994408;28;20062;-77
2023/12/04 11:28:31;;;;;;;3.07;2.87;;;1.80;99.90;;;;;;4970492;28;20054;-74
2023/12/04 11:30:58;;;;;;;3.87;3.43;;;1.80;99.90;;;;;;4965076;28;20038;-75
2023/12/04 11:33:23;;;;;;;3.93;2.77;;;1.80;99.90;;;;;;4982791;28;20046;-76
2023/12/04 11:35:50;;;;;;;4.30;3.97;;;1.90;99.90;;;;;;4985729;28;20377;-76
2023/12/04 11:38:19;;;;;;;4.23;3.70;;;1.90;99.90;;;;;;5002009;28;20042;-76
2023/12/04 11:40:46;;;;;;;5.03;3.20;;;1.80;99.90;;;;;;5001989;28;20045;-76
2023/12/04 11:43:26;;;;;;;6.03;3.33;;;1.90;99.90;;;;;;4985727;28;20057;-76
2023/12/04 11:45:52;;;;;;;4.83;4.27;;;1.90;99.90;;;;;;4988879;28;20495;-77
2023/12/04 11:48:23;;;;;;;8.30;4.20;;;1.90;99.90;;;;;;5001716;28;20138;-76
2023/12/04 11:50:50;;;;;;;2.43;2.23;;;1.90;99.90;;;;;;5001774;28;20041;-76
2023/12/04 11:53:16;;;;;;;2.10;2.00;;;1.90;99.90;;;;;;4998365;28;20038;-75
2023/12/04 11:55:41;;;;;;;3.00;2.80;;;1.90;99.90;;;;;;4991473;28;20448;-78
2023/12/04 11:58:11;;;;;;;3.30;3.00;;;1.90;99.90;;;;;;5000774;28;20046;-76
2023/12/04 12:00:37;;;;;;;5.23;4.10;;;1.90;99.90;;;;;;5001335;28;20257;-78
2023/12/04 12:03:09;;;;;;;2.50;2.30;;;1.90;99.90;;;;;;5000999;28;20037;-76
2023/12/04 12:05:36;;;;;;;2.35;2.25;;;2.00;99.90;;;;;;4989418;28;20425;-76
2023/12/04 12:08:06;;;;;;;4.27;3.27;;;2.00;99.90;;;;;;4999739;28;20038;-76
2023/12/04 12:10:32;;;;;;;2.23;2.13;;;2.00;99.90;;;;;;4998811;28;20332;-75
2023/12/04 12:12:58;;;;;;;4.90;3.33;;;2.00;99.90;;;;;;4999740;28;20101;-78
2023/12/04 12:15:24;;;;;;;3.27;3.00;;;2.00;99.90;;;;;;5000539;28;20038;-77
2023/12/04 12:17:53;;;;;;;4.03;3.77;;;2.00;99.90;;;;;;4990746;28;20050;-77
2023/12/04 12:20:20;;;;;;;2.77;2.27;;;2.00;99.90;;;;;;4988963;28;20056;-78
2023/12/04 12:22:48;;;;;;;4.43;4.03;;;2.00;99.90;;;;;;4986929;28;20038;-78
2023/12/04 12:25:14;;;;;;;2.30;2.20;;;2.00;99.90;;;;;;4991975;28;20116;-76
2023/12/04 12:27:39;;;;;;;3.57;3.23;;;2.00;99.90;;;;;;5000039;28;20049;-77
2023/12/04 12:30:06;;;;;;;3.77;3.27;;;2.00;99.90;;;;;;4979159;28;20161;-78
2023/12/04 12:32:33;;;;;;;2.73;2.53;;;2.00;99.90;;;;;;4998409;28;20063;-77
2023/12/04 12:34:58;;;;;;;2.80;2.70;;;2.00;99.90;;;;;;5001215;28;20041;-77
2023/12/04 12:37:24;;;;;;;6.30;3.33;;;2.00;99.90;;;;;;4971796;28;20540;-77
2023/12/04 12:39:51;;;;;;;5.30;4.77;;;2.00;99.90;;;;;;4984240;28;20077;-78
2023/12/04 12:42:28;;;;;;;3.23;3.00;;;2.00;99.90;;;;;;4985145;28;20115;-77
2023/12/04 12:44:55;;;;;;;7.87;3.70;;;2.10;99.90;;;;;;4975119;28;20038;-77
2023/12/04 12:47:22;;;;;;;3.17;2.97;;;2.00;99.90;;;;;;4994980;28;20112;-77
2023/12/04 12:49:48;;;;;;;5.33;3.73;;;2.00;99.90;;;;;;4997614;28;20325;-78
2023/12/04 12:52:14;;;;;;;4.10;3.77;;;2.10;99.90;;;;;;4983059;28;20466;-78